Ivesdale, IL (61851)

1:17 AM CST on February 24, 2017 (GMT -0600)
Jones Family | | Change Station

Elev 745 ft 40.00 °N, 88.58 °W | Updated 35 seconds ago

Partly Cloudy
Partly Cloudy
57.6 °F
Feels Like 57.6 °F
N
9.8
Wind Variable Wind from SE
Gusts 11.4 mph

Today
High -- | Low -- °F
--% Chance of Precip.
Yesterday
High -- | Low -- °F
Precip. -- in
Pressure 29.56 in
Visibility 9.0 miles
Clouds Clear
Dew Point 53 °F
Humidity 84%
Rainfall 0.00 in
Snow Depth Not available.
6:34 AM 5:40 PM
Waning Crescent, 6% visible
METAR KCMI 240653Z AUTO 11010KT 9SM CLR 13/11 A2956 RMK AO2 SLP009 T01280106
Pressure 29.56 in
Visibility 9.0 miles
Clouds Clear
Dew Point 53 °F
Humidity 84%
Rainfall 0.00 in
Snow Depth Not available.
6:34 AM 5:40 PM
Waning Crescent, 6% visible
METAR KCMI 240653Z AUTO 11010KT 9SM CLR 13/11 A2956 RMK AO2 SLP009 T01280106

Get Your Daily Forecast Email!

Thanks for signing up!

Be on the lookout for a verification email in your inbox.

You'll start receiving the daily forecast at 8 AM.

×

10-Day Weather Forecast

Almanac

Astronomy

Feb. 24, 2017 Rise Set
Actual Time
Civil Twilight
Nautical Twilight
Astronomical Twilight
Moon
Length of Visible Light
Length of Day
Tomorrow will be .
, % of the Moon is Illuminated

Today's Extremes

State Highs State Lows

Community

WunderPhotos

Upload Photos

1,962,540 photos uploaded!

WunderBlog® & News

Nearby

Air Quality

  Air Quality AQ Index Pollutant
Not available.

Snow Depth

Station Depth Elevation

Earthquake Activity

City Distance Mag. Time & Date
Minimum magnitude displayed is 2.5.

Coastal Water Temperatures

Place Temperature

Stations

Nearby Weather Stations

Station Location Temp. Windchill Dew Point Humidity Wind Precip. Elev Updated Type
                   

Watches & Warnings

There are currently no watches in effect.